createdAt,value
2022-10-18T00:02:17.627Z,5.57
2022-10-18T00:04:50.430Z,6.28
2022-10-18T00:07:20.152Z,8.90
2022-10-18T00:09:49.840Z,11.60
2022-10-18T00:12:19.527Z,8.32
2022-10-18T00:14:51.582Z,7.53
2022-10-18T00:17:21.337Z,12.25
2022-10-18T00:19:53.722Z,9.90
2022-10-18T00:22:23.394Z,6.65
2022-10-18T00:24:53.188Z,10.20
2022-10-18T00:27:23.111Z,6.13
2022-10-18T00:29:55.527Z,5.05
2022-10-18T00:32:25.438Z,9.93
2022-10-18T00:34:57.694Z,9.95
2022-10-18T00:37:27.477Z,10.88
2022-10-18T00:39:57.160Z,6.07
2022-10-18T00:42:30.964Z,8.25
2022-10-18T00:45:15.459Z,8.60
2022-10-18T00:47:48.460Z,8.35
2022-10-18T00:50:22.852Z,8.30
2022-10-18T00:52:56.979Z,12.38
2022-10-18T00:55:27.177Z,6.40
2022-10-18T00:57:58.659Z,5.43
2022-10-18T01:00:28.379Z,4.70
2022-10-18T01:02:58.199Z,7.80
2022-10-18T01:05:30.749Z,3.75
2022-10-18T01:08:17.975Z,5.60
2022-10-18T01:10:57.288Z,8.93
2022-10-18T01:13:38.437Z,3.33
2022-10-18T01:16:16.906Z,9.25
2022-10-18T01:18:52.456Z,7.03
2022-10-18T01:21:37.689Z,4.00
2022-10-18T01:24:38.454Z,8.35
2022-10-18T01:27:33.488Z,3.38
2022-10-18T01:30:33.435Z,6.90
2022-10-18T01:33:08.603Z,10.40
2022-10-18T01:35:43.730Z,3.30
2022-10-18T01:38:18.125Z,6.15
2022-10-18T01:40:51.258Z,5.93
2022-10-18T01:43:24.472Z,7.22
2022-10-18T01:45:58.560Z,10.27
2022-10-18T01:48:29.027Z,8.05
2022-10-18T01:50:59.637Z,2.93
2022-10-18T01:53:32.796Z,7.25
2022-10-18T01:56:27.051Z,6.35
2022-10-18T01:59:05.515Z,5.00
2022-10-18T02:01:48.329Z,7.80
2022-10-18T02:04:29.928Z,4.58
2022-10-18T02:07:08.869Z,11.15
2022-10-18T02:09:43.242Z,6.90
2022-10-18T02:12:17.711Z,6.82
2022-10-18T02:14:48.649Z,6.68
2022-10-18T02:17:23.510Z,6.80
2022-10-18T02:19:58.690Z,6.00
2022-10-18T02:22:32.905Z,9.95
2022-10-18T02:25:06.355Z,3.65
2022-10-18T02:27:36.193Z,9.00
2022-10-18T02:30:06.490Z,4.90
2022-10-18T02:32:44.452Z,5.28
2022-10-18T02:35:20.832Z,6.22
2022-10-18T02:37:53.288Z,4.72
2022-10-18T02:40:23.258Z,7.47
2022-10-18T02:42:57.771Z,5.07
2022-10-18T02:45:28.430Z,10.77
2022-10-18T02:48:00.693Z,9.05
2022-10-18T02:50:30.455Z,3.78
2022-10-18T02:53:00.138Z,4.38
2022-10-18T02:55:29.948Z,9.43
2022-10-18T02:57:59.615Z,6.40
2022-10-18T03:00:29.280Z,13.20
2022-10-18T03:03:01.552Z,7.38
2022-10-18T03:05:31.297Z,6.22
2022-10-18T03:08:01.049Z,3.45
2022-10-18T03:10:30.746Z,7.30
2022-10-18T03:13:00.575Z,3.92
2022-10-18T03:15:30.221Z,6.65
2022-10-18T03:18:02.501Z,7.65
2022-10-18T03:20:32.294Z,8.13
2022-10-18T03:23:02.013Z,5.95
2022-10-18T03:25:31.699Z,3.70
2022-10-18T03:28:01.442Z,5.45
2022-10-18T03:30:31.149Z,4.72
2022-10-18T03:33:03.489Z,7.78
2022-10-18T03:35:33.263Z,3.10
2022-10-18T03:38:02.950Z,4.65
2022-10-18T03:40:32.607Z,7.47
2022-10-18T03:43:02.288Z,7.55
2022-10-18T03:45:31.955Z,3.20
2022-10-18T03:48:04.211Z,6.72
2022-10-18T03:50:33.942Z,12.82
2022-10-18T03:53:03.713Z,5.95
2022-10-18T03:55:33.413Z,4.57
2022-10-18T03:58:03.333Z,7.95
2022-10-18T04:00:33.211Z,3.30
2022-10-18T04:03:05.592Z,6.47
2022-10-18T04:05:36.674Z,4.80
2022-10-18T04:08:06.634Z,9.00
2022-10-18T04:10:36.366Z,6.80
2022-10-18T04:13:06.069Z,12.25
2022-10-18T04:15:36.075Z,4.38
2022-10-18T04:18:08.676Z,7.82
2022-10-18T04:20:38.451Z,6.43
2022-10-18T04:23:08.177Z,4.85
2022-10-18T04:25:37.909Z,11.50
2022-10-18T04:28:08.146Z,3.00
2022-10-18T04:30:37.953Z,3.78
2022-10-18T04:33:10.302Z,4.82
2022-10-18T04:35:39.977Z,2.55
2022-10-18T04:38:09.815Z,3.22
2022-10-18T04:40:40.412Z,3.13
2022-10-18T04:43:10.104Z,8.95
2022-10-18T04:45:39.801Z,6.25
2022-10-18T04:48:12.277Z,5.88
2022-10-18T04:50:41.915Z,8.15
2022-10-18T04:53:11.603Z,61.08
2022-10-18T04:55:41.497Z,23.98
2022-10-18T04:58:11.150Z,5.45
2022-10-18T05:00:40.944Z,6.80
2022-10-18T05:03:15.377Z,10.40
2022-10-18T05:06:03.124Z,6.05
2022-10-18T05:08:34.127Z,3.28
2022-10-18T05:11:04.529Z,3.20
2022-10-18T05:13:34.354Z,5.53
2022-10-18T05:16:04.035Z,5.35
2022-10-18T05:18:36.362Z,7.22
2022-10-18T05:21:06.301Z,4.90
2022-10-18T05:23:35.986Z,5.25
2022-10-18T05:26:09.062Z,9.20
2022-10-18T05:28:40.497Z,19.83
2022-10-18T05:31:13.044Z,6.60
2022-10-18T05:33:45.431Z,6.55
2022-10-18T05:36:15.109Z,19.35
2022-10-18T05:38:45.704Z,7.50
2022-10-18T05:41:15.815Z,4.33
2022-10-18T05:43:45.534Z,8.20
2022-10-18T05:46:15.951Z,3.45
2022-10-18T05:48:53.032Z,5.40
2022-10-18T05:51:23.155Z,3.50
2022-10-18T05:53:53.168Z,5.10
2022-10-18T05:56:22.992Z,7.55
2022-10-18T05:58:53.761Z,5.57
2022-10-18T06:01:23.563Z,6.50
2022-10-18T06:03:56.112Z,8.32
2022-10-18T06:06:25.792Z,10.38
2022-10-18T06:08:55.621Z,7.63
2022-10-18T06:11:25.350Z,7.88
2022-10-18T06:13:55.636Z,5.95
2022-10-18T06:16:31.214Z,5.32
2022-10-18T06:19:04.634Z,7.53
2022-10-18T06:21:34.304Z,7.28
2022-10-18T06:24:03.966Z,7.78
2022-10-18T06:26:33.835Z,5.50
2022-10-18T06:29:03.766Z,5.60
2022-10-18T06:31:33.484Z,3.40
2022-10-18T06:34:05.797Z,11.25
2022-10-18T06:36:35.482Z,3.88
2022-10-18T06:39:05.276Z,7.57
2022-10-18T06:41:34.992Z,6.63
2022-10-18T06:44:13.740Z,5.13
2022-10-18T06:46:44.090Z,4.47
2022-10-18T06:49:19.143Z,4.30
2022-10-18T06:51:49.660Z,4.88
2022-10-18T06:54:19.828Z,3.28
2022-10-18T06:56:49.616Z,6.50
2022-10-18T06:59:19.538Z,9.85
2022-10-18T07:01:49.189Z,7.65
2022-10-18T07:04:21.950Z,7.82
2022-10-18T07:06:56.728Z,3.40
2022-10-18T07:09:26.319Z,8.18
2022-10-18T07:11:55.919Z,4.15
2022-10-18T07:14:28.918Z,4.25
2022-10-18T07:17:02.030Z,6.38
2022-10-18T07:19:37.246Z,6.95
2022-10-18T07:22:07.050Z,4.47
2022-10-18T07:24:36.868Z,4.15
2022-10-18T07:27:06.841Z,4.15
2022-10-18T07:29:38.330Z,4.95
2022-10-18T07:32:08.580Z,6.32
2022-10-18T07:34:40.935Z,6.95
2022-10-18T07:37:11.406Z,5.53
2022-10-18T07:39:41.214Z,4.55
2022-10-18T07:42:11.040Z,5.55
2022-10-18T07:44:41.965Z,3.60
2022-10-18T07:47:13.216Z,146.75
2022-10-18T07:53:09.873Z,165.75
2022-10-18T07:55:39.733Z,102.78
2022-10-18T07:58:09.577Z,42.58
2022-10-18T08:00:39.345Z,8.70
2022-10-18T08:03:09.583Z,4.55
2022-10-18T08:05:39.333Z,10.88
2022-10-18T08:08:14.899Z,9.68
2022-10-18T08:10:44.658Z,9.20
2022-10-18T08:13:14.349Z,8.88
2022-10-18T08:15:44.265Z,4.93
2022-10-18T08:18:14.442Z,5.63
2022-10-18T08:20:48.199Z,13.55
2022-10-18T08:23:20.539Z,27.85
2022-10-18T08:25:51.039Z,18.35
2022-10-18T08:28:28.164Z,6.68
2022-10-18T08:30:58.052Z,5.88
2022-10-18T08:33:27.849Z,8.98
2022-10-18T08:35:58.360Z,4.65
2022-10-18T08:38:33.351Z,8.23
2022-10-18T08:41:04.800Z,6.50
2022-10-18T08:43:41.898Z,6.65
2022-10-18T08:46:15.487Z,8.55
2022-10-18T08:48:49.323Z,7.85
2022-10-18T08:51:30.036Z,6.15
2022-10-18T08:54:07.140Z,6.10
2022-10-18T08:56:37.633Z,12.47
2022-10-18T08:59:12.414Z,8.50
2022-10-18T09:01:51.400Z,6.13
2022-10-18T09:07:51.713Z,4.50
2022-10-18T09:10:36.115Z,4.40
2022-10-18T09:13:24.728Z,5.63
2022-10-18T09:15:59.939Z,5.28
2022-10-18T09:18:51.406Z,5.53
2022-10-18T09:21:24.063Z,6.55
2022-10-18T09:24:04.962Z,11.25
2022-10-18T09:26:46.234Z,7.20
2022-10-18T09:29:35.260Z,4.28
2022-10-18T09:32:09.339Z,7.18
2022-10-18T09:34:48.342Z,7.43
2022-10-18T09:37:21.690Z,5.88
2022-10-18T09:39:53.553Z,8.00
2022-10-18T09:42:31.068Z,6.05
2022-10-18T09:45:05.759Z,4.45
2022-10-18T09:47:40.652Z,3.95
2022-10-18T09:50:24.296Z,4.50
2022-10-18T09:52:59.710Z,3.00
2022-10-18T09:55:36.849Z,4.05
2022-10-18T09:58:14.589Z,5.03
2022-10-18T10:00:50.176Z,2.97
2022-10-18T10:03:20.079Z,5.63
2022-10-18T10:05:49.990Z,5.72
2022-10-18T10:08:19.675Z,2.75
2022-10-18T10:10:50.605Z,6.07
2022-10-18T10:13:28.321Z,6.20
2022-10-18T10:16:00.247Z,6.28
2022-10-18T10:18:32.814Z,6.38
2022-10-18T10:21:05.833Z,5.22
2022-10-18T10:23:40.548Z,9.07
2022-10-18T10:26:25.555Z,10.10
2022-10-18T10:28:58.283Z,3.08
2022-10-18T10:31:31.362Z,5.25
2022-10-18T10:34:03.725Z,11.48
2022-10-18T10:36:35.236Z,7.18
2022-10-18T10:39:12.622Z,3.03
2022-10-18T10:41:44.036Z,4.38
2022-10-18T10:44:21.907Z,3.55
2022-10-18T10:46:53.091Z,4.22
2022-10-18T10:49:39.543Z,2.55
2022-10-18T10:52:26.202Z,8.02
2022-10-18T10:55:06.252Z,5.93
2022-10-18T10:57:48.743Z,4.07
2022-10-18T11:00:43.677Z,10.02
2022-10-18T11:03:28.482Z,4.65
2022-10-18T11:06:01.149Z,11.18
2022-10-18T11:08:36.397Z,8.05
2022-10-18T11:11:19.379Z,5.72
2022-10-18T11:14:07.384Z,3.13
2022-10-18T11:16:56.332Z,2.75
2022-10-18T11:19:36.992Z,3.25
2022-10-18T11:22:09.440Z,5.00
2022-10-18T11:24:39.684Z,5.43
2022-10-18T11:27:17.863Z,4.78
2022-10-18T11:29:58.236Z,6.35
2022-10-18T11:32:37.517Z,8.68
2022-10-18T11:35:25.350Z,7.55
2022-10-18T11:38:07.793Z,7.78
2022-10-18T11:40:58.428Z,3.95
2022-10-18T11:44:00.722Z,9.05
2022-10-18T11:46:43.271Z,6.10
2022-10-18T11:49:28.707Z,4.93
2022-10-18T11:52:10.570Z,8.60
2022-10-18T11:55:13.646Z,5.55
2022-10-18T11:57:49.030Z,5.75
2022-10-18T12:00:40.775Z,4.50
2022-10-18T12:03:22.661Z,4.45
2022-10-18T12:05:56.911Z,4.57
2022-10-18T12:08:30.719Z,2.20
2022-10-18T12:11:06.408Z,4.00
2022-10-18T12:13:41.868Z,7.90
2022-10-18T12:16:13.573Z,4.10
2022-10-18T12:18:54.379Z,5.28
2022-10-18T12:21:29.769Z,18.30
2022-10-18T12:24:02.479Z,15.77
2022-10-18T12:26:33.554Z,3.80
2022-10-18T12:29:17.045Z,7.30
2022-10-18T12:31:51.071Z,3.72
2022-10-18T12:34:36.298Z,6.00
2022-10-18T12:37:40.774Z,4.30
2022-10-18T12:40:20.305Z,5.55
2022-10-18T12:42:53.413Z,3.58
2022-10-18T12:45:33.512Z,3.60
2022-10-18T12:48:05.166Z,4.65
2022-10-18T12:50:38.122Z,9.15
2022-10-18T12:53:21.091Z,3.97
2022-10-18T12:55:52.514Z,4.90
2022-10-18T12:58:34.400Z,2.40
2022-10-18T13:01:07.721Z,2.63
2022-10-18T13:04:02.732Z,2.88
2022-10-18T13:07:03.182Z,3.58
2022-10-18T13:09:37.645Z,5.38
2022-10-18T13:12:46.941Z,4.15
2022-10-18T13:15:38.186Z,2.22
2022-10-18T13:18:18.712Z,2.50
2022-10-18T13:20:55.463Z,4.75
2022-10-18T13:23:45.683Z,2.47
2022-10-18T13:26:27.219Z,2.47
2022-10-18T13:29:06.055Z,2.30
2022-10-18T13:31:44.242Z,2.75
2022-10-18T13:34:31.015Z,3.45
2022-10-18T13:37:03.476Z,2.92
2022-10-18T13:39:34.673Z,2.38
2022-10-18T13:42:32.313Z,5.68
2022-10-18T13:45:32.294Z,2.03
2022-10-18T13:48:46.186Z,2.67
2022-10-18T13:51:52.169Z,3.50
2022-10-18T13:54:41.396Z,3.30
2022-10-18T13:57:23.097Z,2.53
2022-10-18T14:00:17.065Z,5.85
2022-10-18T14:03:16.263Z,3.80
2022-10-18T14:05:57.951Z,2.35
2022-10-18T14:08:39.990Z,4.75
2022-10-18T14:11:22.119Z,4.07
2022-10-18T14:13:57.697Z,3.15
2022-10-18T14:16:38.294Z,5.47
2022-10-18T14:19:17.808Z,7.95
2022-10-18T14:21:54.987Z,5.30
2022-10-18T14:24:28.382Z,3.15
2022-10-18T14:27:14.304Z,3.45
2022-10-18T14:29:44.123Z,7.30
2022-10-18T14:32:26.782Z,4.70
2022-10-18T14:35:27.298Z,3.50
2022-10-18T14:37:49.407Z,3.63
2022-10-18T14:40:39.121Z,24.00
2022-10-18T14:43:14.485Z,3.25
2022-10-18T14:45:45.661Z,2.50
2022-10-18T14:48:23.670Z,4.88
2022-10-18T14:51:00.693Z,3.90
2022-10-18T14:53:36.012Z,3.92
2022-10-18T14:56:07.549Z,8.27
2022-10-18T14:58:39.622Z,4.50
2022-10-18T15:01:09.731Z,3.53
2022-10-18T15:03:42.122Z,4.18
2022-10-18T15:06:18.201Z,3.42
2022-10-18T15:08:49.201Z,5.82
2022-10-18T15:11:19.619Z,1.90
2022-10-18T15:13:53.182Z,4.70
2022-10-18T15:16:25.355Z,2.65
2022-10-18T15:19:10.389Z,2.75
2022-10-18T15:21:40.075Z,3.75
2022-10-18T15:24:29.447Z,2.83
2022-10-18T15:27:03.401Z,3.65
2022-10-18T15:29:36.905Z,4.22
2022-10-18T15:32:18.447Z,3.92
2022-10-18T15:34:50.852Z,3.00
2022-10-18T15:37:31.940Z,5.43
2022-10-18T15:40:32.457Z,2.50
2022-10-18T15:43:03.826Z,4.22
2022-10-18T15:45:37.586Z,4.65
2022-10-18T15:48:25.103Z,2.75
2022-10-18T15:51:02.068Z,5.40
2022-10-18T15:53:38.021Z,2.67
2022-10-18T15:56:10.072Z,2.35
2022-10-18T15:58:45.770Z,2.28
2022-10-18T16:01:20.696Z,14.88
2022-10-18T16:03:51.518Z,11.75
2022-10-18T16:06:24.122Z,2.60
2022-10-18T16:08:55.794Z,2.70
2022-10-18T16:11:27.264Z,3.15
2022-10-18T16:13:59.608Z,2.70
2022-10-18T16:16:31.962Z,2.22
2022-10-18T16:19:01.684Z,4.60
2022-10-18T16:21:35.967Z,2.72
2022-10-18T16:24:06.973Z,3.85
2022-10-18T16:26:38.745Z,2.67
2022-10-18T16:29:09.195Z,3.72
2022-10-18T16:31:38.944Z,5.88
2022-10-18T16:34:11.059Z,5.60
2022-10-18T16:36:44.258Z,4.03
2022-10-18T16:39:18.294Z,3.83
2022-10-18T16:41:48.174Z,2.60
2022-10-18T16:44:19.333Z,2.83
2022-10-18T16:46:52.524Z,3.00
2022-10-18T16:49:26.470Z,2.80
2022-10-18T16:51:59.594Z,7.32
2022-10-18T16:54:29.224Z,3.00
2022-10-18T16:56:58.999Z,5.15
2022-10-18T16:59:30.669Z,4.35
2022-10-18T17:02:04.821Z,9.07
2022-10-18T17:04:34.487Z,7.57
2022-10-18T17:07:07.683Z,4.18
2022-10-18T17:09:37.665Z,3.30
2022-10-18T17:12:08.245Z,4.45
2022-10-18T17:14:38.572Z,3.78
2022-10-18T17:17:08.215Z,3.80
2022-10-18T17:19:37.867Z,4.53
2022-10-18T17:22:10.161Z,3.00
2022-10-18T17:24:39.866Z,3.55
2022-10-18T17:27:09.579Z,3.28
2022-10-18T17:29:41.041Z,5.18
2022-10-18T17:32:10.826Z,6.03
2022-10-18T17:37:13.733Z,3.30
2022-10-18T17:39:43.414Z,3.38
2022-10-18T17:42:13.083Z,4.63
2022-10-18T17:44:43.388Z,5.93
2022-10-18T17:47:12.949Z,7.75
2022-10-18T17:49:44.995Z,3.92
2022-10-18T17:52:17.194Z,6.05
2022-10-18T17:54:46.865Z,4.10
2022-10-18T17:57:16.480Z,3.53
2022-10-18T17:59:46.186Z,4.03
2022-10-18T18:02:15.850Z,3.92
2022-10-18T18:04:45.576Z,3.67
2022-10-18T18:07:17.786Z,4.13
2022-10-18T18:09:47.351Z,3.25
2022-10-18T18:12:17.162Z,5.40
2022-10-18T18:14:46.838Z,3.60
2022-10-18T18:17:24.644Z,8.10
2022-10-18T18:20:03.388Z,4.35
2022-10-18T18:22:40.372Z,4.57
2022-10-18T18:25:12.623Z,4.60
2022-10-18T18:27:42.334Z,3.85
2022-10-18T18:30:12.985Z,3.05
2022-10-18T18:32:42.782Z,4.75
2022-10-18T18:35:12.951Z,4.82
2022-10-18T18:37:45.259Z,3.70
2022-10-18T18:40:14.969Z,3.80
2022-10-18T18:42:46.041Z,3.20
2022-10-18T18:45:22.909Z,3.42
2022-10-18T18:47:52.517Z,4.05
2022-10-18T18:50:22.191Z,3.50
2022-10-18T18:52:54.456Z,3.80
2022-10-18T18:55:24.236Z,6.13
2022-10-18T18:57:53.872Z,5.82
2022-10-18T19:00:23.518Z,4.20
2022-10-18T19:02:53.107Z,6.47
2022-10-18T19:07:55.897Z,4.53
2022-10-18T19:10:25.553Z,5.68
2022-10-18T19:12:55.267Z,8.10
2022-10-18T19:15:25.090Z,7.88
2022-10-18T19:17:54.860Z,6.63
2022-10-18T19:20:24.953Z,4.22
2022-10-18T19:22:57.201Z,4.15
2022-10-18T19:25:27.110Z,4.22
2022-10-18T19:27:56.865Z,5.30
2022-10-18T19:30:26.713Z,4.55
2022-10-18T19:33:01.239Z,6.38
2022-10-18T19:35:33.298Z,6.15
2022-10-18T19:38:05.565Z,4.60
2022-10-18T19:40:35.226Z,5.50
2022-10-18T19:43:04.968Z,8.05
2022-10-18T19:45:35.430Z,4.90
2022-10-18T19:48:05.094Z,7.38
2022-10-18T19:50:34.747Z,10.45
2022-10-18T19:53:06.979Z,26.02
2022-10-18T19:55:36.692Z,5.35
2022-10-18T19:58:06.378Z,6.28
2022-10-18T20:00:36.027Z,16.70
2022-10-18T20:03:05.637Z,10.77
2022-10-18T20:05:35.253Z,14.23
2022-10-18T20:08:07.732Z,7.07
2022-10-18T20:10:37.418Z,4.38
2022-10-18T20:13:07.050Z,4.65
2022-10-18T20:15:36.693Z,4.95
2022-10-18T20:18:06.506Z,5.50
2022-10-18T20:20:37.629Z,10.10
2022-10-18T20:23:09.947Z,9.57
2022-10-18T20:25:39.850Z,9.02
2022-10-18T20:28:09.868Z,7.00
2022-10-18T20:30:39.567Z,4.90
2022-10-18T20:33:09.300Z,8.48
2022-10-18T20:35:39.065Z,7.37
2022-10-18T20:38:11.488Z,12.05
2022-10-18T20:40:41.237Z,7.65
2022-10-18T20:43:10.954Z,31.00
2022-10-18T20:45:40.691Z,6.20
2022-10-18T20:48:10.344Z,8.13
2022-10-18T20:50:43.640Z,9.63
2022-10-18T20:53:16.534Z,6.70
2022-10-18T20:55:46.277Z,7.63
2022-10-18T20:58:16.334Z,5.72
2022-10-18T21:00:46.041Z,8.25
2022-10-18T21:03:15.747Z,9.65
2022-10-18T21:05:45.395Z,9.45
2022-10-18T21:08:18.002Z,5.93
2022-10-18T21:10:47.751Z,5.57
2022-10-18T21:13:17.417Z,6.80
2022-10-18T21:15:47.000Z,4.45
2022-10-18T21:18:16.685Z,5.30
2022-10-18T21:20:46.316Z,6.20
2022-10-18T21:23:18.610Z,5.65
2022-10-18T21:25:48.482Z,9.48
2022-10-18T21:28:18.987Z,5.38
2022-10-18T21:30:48.695Z,9.32
2022-10-18T21:33:18.427Z,4.38
2022-10-18T21:35:48.174Z,5.40
2022-10-18T21:38:20.544Z,5.88
2022-10-18T21:40:50.226Z,9.57
2022-10-18T21:43:19.934Z,5.82
2022-10-18T21:45:49.632Z,5.43
2022-10-18T21:48:19.281Z,5.90
2022-10-18T21:50:48.990Z,6.78
2022-10-18T21:53:21.267Z,6.78
2022-10-18T21:55:51.135Z,6.68
2022-10-18T21:58:21.037Z,10.13
2022-10-18T22:00:50.816Z,11.15
2022-10-18T22:03:23.328Z,11.48
2022-10-18T22:06:01.392Z,9.80
2022-10-18T22:08:33.754Z,5.57
2022-10-18T22:11:03.840Z,6.57
2022-10-18T22:13:34.252Z,6.07
2022-10-18T22:16:04.825Z,5.25
2022-10-18T22:18:35.777Z,7.05
2022-10-18T22:21:08.069Z,8.37
2022-10-18T22:23:42.248Z,7.28
2022-10-18T22:26:14.962Z,7.13
2022-10-18T22:28:46.597Z,13.50
2022-10-18T22:31:17.723Z,6.72
2022-10-18T22:33:47.761Z,11.03
2022-10-18T22:36:17.370Z,9.80
2022-10-18T22:38:49.561Z,7.30
2022-10-18T22:41:19.675Z,9.17
2022-10-18T22:43:50.043Z,5.90
2022-10-18T22:46:20.568Z,6.38
2022-10-18T22:48:50.638Z,8.27
2022-10-18T22:51:20.717Z,9.55
2022-10-18T22:53:53.130Z,4.27
2022-10-18T22:56:24.605Z,10.20
2022-10-18T22:58:54.481Z,8.23
2022-10-18T23:01:25.828Z,7.45
2022-10-18T23:03:56.245Z,7.78
2022-10-18T23:06:28.079Z,5.13
2022-10-18T23:09:02.455Z,11.13
2022-10-18T23:11:32.647Z,5.30
2022-10-18T23:14:03.778Z,5.65
2022-10-18T23:16:33.477Z,8.80
2022-10-18T23:19:03.364Z,4.70
2022-10-18T23:21:33.009Z,8.87
2022-10-18T23:24:05.421Z,6.67
2022-10-18T23:26:35.250Z,8.57
2022-10-18T23:29:05.034Z,12.47
2022-10-18T23:31:35.862Z,7.37
2022-10-18T23:34:07.815Z,5.97
2022-10-18T23:36:37.683Z,10.23
2022-10-18T23:39:10.041Z,6.93
2022-10-18T23:41:39.694Z,5.57
2022-10-18T23:44:11.025Z,7.30
2022-10-18T23:46:40.675Z,8.60
2022-10-18T23:49:10.371Z,8.87
2022-10-18T23:51:40.067Z,5.03
2022-10-18T23:54:12.436Z,4.30
2022-10-18T23:56:42.127Z,10.97
2022-10-18T23:59:11.834Z,10.70
